PWSweather.com
Personal Weather Stations
Station Observations
CHEVALR
Cheval Rigon, Ferrieres Sur SichonFR

Cheval RigonFerrieres Sur SichonFR

Lat: 46.02966, Lon: 3.61771

Elevation: 1923

Station Type: Davis Vantage Pro2

Latest ConditionsUpdated 10:14:57 AM GMT+01:01 Thursday, Dec 12, 2019
Currently Today's Max Today's Min Today's Average
Temperature 37.0°F2.8°C 37.4°F3.0°C 34.5°F1.4°C 35.4°F1.9°C
Dew Point 33.2°F0.7°C 35.8°F2.1°C 31.9°F-0.1°C 32.8°F0.4°C
Winds 2.0 mph SW3.2 kmh SW 6.0 mph -9.7 kmh - - 1.6 mph 2.6 kmh
Wind Gusts 2.0 mph3.2 kmh 11.0 mph17.7 kmh - -
Humidity 86% 94% 86% 90%
Pressure 29.84 in1010.5 mb 29.88 in1011.9 mb 29.84 in1010.5 mb -
Hour Temp Dew Point Humidity Winds Wind Gusts Pressure Precip Precip Rate Daily Precip Total
10:14 AM 37.0°F2.8°C 33.2°F0.7°C 86% 2.0 mph SW3.2 kmh SW 2.0 mph3.2 kmh 29.84 in1010.5 mb 0.00 in0.0 mm 0.00 in0.0 mm 0.01 in0.3 mm
09:59 AM 36.1°F2.3°C 32.9°F0.5°C 88% 2.0 mph SW3.2 kmh SW 4.0 mph6.4 kmh 29.84 in1010.5 mb 0.00 in0.0 mm 0.00 in0.0 mm 0.01 in0.3 mm
09:44 AM 35.3°F1.8°C 32.1°F0.1°C 88% Calm Calm 4.0 mph6.4 kmh 29.85 in1010.8 mb 0.00 in0.0 mm 0.00 in0.0 mm 0.01 in0.3 mm
09:29 AM 35.3°F1.8°C 32.4°F0.2°C 89% Calm Calm 1.0 mph1.6 kmh 29.85 in1010.8 mb 0.00 in0.0 mm 0.00 in0.0 mm 0.01 in0.3 mm
09:15 AM 35.2°F1.8°C 32.3°F0.2°C 89% Calm Calm 3.0 mph4.8 kmh 29.86 in1011.2 mb 0.00 in0.0 mm 0.00 in0.0 mm 0.01 in0.3 mm
08:59 AM 35.0°F1.7°C 32.4°F0.2°C 90% Calm Calm 3.0 mph4.8 kmh 29.86 in1011.2 mb 0.00 in0.0 mm 0.00 in0.0 mm 0.01 in0.3 mm
08:44 AM 34.9°F1.6°C 32.3°F0.2°C 90% Calm Calm 2.0 mph3.2 kmh 29.86 in1011.2 mb 0.00 in0.0 mm 0.00 in0.0 mm 0.01 in0.3 mm
08:29 AM 34.5°F1.4°C 31.9°F-0.1°C 90% 2.0 mph S3.2 kmh S 3.0 mph4.8 kmh 29.87 in1011.5 mb 0.00 in0.0 mm 0.00 in0.0 mm 0.01 in0.3 mm
08:15 AM 34.5°F1.4°C 31.9°F-0.1°C 90% Calm Calm 2.0 mph3.2 kmh 29.86 in1011.2 mb 0.00 in0.0 mm 0.00 in0.0 mm 0.01 in0.3 mm
07:59 AM 34.6°F1.4°C 32.0°F0.0°C 90% 1.0 mph SE1.6 kmh SE 2.0 mph3.2 kmh 29.87 in1011.5 mb 0.00 in0.0 mm 0.00 in0.0 mm 0.01 in0.3 mm
07:45 AM 34.8°F1.6°C 31.9°F-0.1°C 89% 2.0 mph SW3.2 kmh SW 3.0 mph4.8 kmh 29.87 in1011.5 mb 0.00 in0.0 mm 0.00 in0.0 mm 0.01 in0.3 mm
07:30 AM 35.1°F1.7°C 32.2°F0.1°C 89% Calm Calm 4.0 mph6.4 kmh 29.87 in1011.5 mb 0.00 in0.0 mm 0.00 in0.0 mm 0.01 in0.3 mm
07:15 AM 35.1°F1.7°C 32.5°F0.3°C 90% Calm Calm 3.0 mph4.8 kmh 29.87 in1011.5 mb 0.00 in0.0 mm 0.00 in0.0 mm 0.01 in0.3 mm
06:59 AM 34.9°F1.6°C 32.3°F0.2°C 90% Calm Calm 5.0 mph8.0 kmh 29.87 in1011.5 mb 0.00 in0.0 mm 0.00 in0.0 mm 0.01 in0.3 mm
06:44 AM 34.7°F1.5°C 32.1°F0.1°C 90% Calm Calm 4.0 mph6.4 kmh 29.87 in1011.5 mb 0.00 in0.0 mm 0.00 in0.0 mm 0.01 in0.3 mm
06:29 AM 34.5°F1.4°C 31.9°F-0.1°C 90% 1.0 mph SW1.6 kmh SW 3.0 mph4.8 kmh 29.87 in1011.5 mb 0.00 in0.0 mm 0.00 in0.0 mm 0.01 in0.3 mm
06:15 AM 34.6°F1.4°C 32.0°F0.0°C 90% 1.0 mph SW1.6 kmh SW 4.0 mph6.4 kmh 29.87 in1011.5 mb 0.00 in0.0 mm 0.00 in0.0 mm 0.01 in0.3 mm
05:59 AM 34.7°F1.5°C 32.1°F0.1°C 90% Calm Calm 5.0 mph8.0 kmh 29.87 in1011.5 mb 0.00 in0.0 mm 0.00 in0.0 mm 0.01 in0.3 mm
05:45 AM 34.6°F1.4°C 32.0°F0.0°C 90% Calm Calm 4.0 mph6.4 kmh 29.88 in1011.9 mb 0.00 in0.0 mm 0.00 in0.0 mm 0.01 in0.3 mm
05:29 AM 34.6°F1.4°C 32.0°F0.0°C 90% 1.0 mph SW1.6 kmh SW 3.0 mph4.8 kmh 29.88 in1011.9 mb 0.00 in0.0 mm 0.00 in0.0 mm 0.01 in0.3 mm
05:15 AM 34.6°F1.4°C 32.0°F0.0°C 90% Calm Calm 4.0 mph6.4 kmh 29.87 in1011.5 mb 0.00 in0.0 mm 0.00 in0.0 mm 0.01 in0.3 mm
04:59 AM 34.5°F1.4°C 32.2°F0.1°C 91% 2.0 mph SSW3.2 kmh SSW 5.0 mph8.0 kmh 29.87 in1011.5 mb 0.00 in0.0 mm 0.00 in0.0 mm 0.01 in0.3 mm
04:45 AM 34.6°F1.4°C 32.0°F0.0°C 90% Calm Calm 5.0 mph8.0 kmh 29.87 in1011.5 mb 0.00 in0.0 mm 0.00 in0.0 mm 0.01 in0.3 mm
04:30 AM 34.7°F1.5°C 32.1°F0.1°C 90% 4.0 mph SW6.4 kmh SW 6.0 mph9.7 kmh 29.87 in1011.5 mb 0.00 in0.0 mm 0.00 in0.0 mm 0.01 in0.3 mm
04:15 AM 34.9°F1.6°C 32.3°F0.2°C 90% Calm Calm 5.0 mph8.0 kmh 29.87 in1011.5 mb 0.00 in0.0 mm 0.00 in0.0 mm 0.01 in0.3 mm
04:00 AM 35.0°F1.7°C 32.4°F0.2°C 90% 4.0 mph WSW6.4 kmh WSW 5.0 mph8.0 kmh 29.87 in1011.5 mb 0.00 in0.0 mm 0.00 in0.0 mm 0.01 in0.3 mm
03:44 AM 35.0°F1.7°C 32.4°F0.2°C 90% 3.0 mph WSW4.8 kmh WSW 7.0 mph11.3 kmh 29.87 in1011.5 mb 0.00 in0.0 mm 0.00 in0.0 mm 0.01 in0.3 mm
03:29 AM 34.9°F1.6°C 32.3°F0.2°C 90% 1.0 mph SSW1.6 kmh SSW 7.0 mph11.3 kmh 29.87 in1011.5 mb 0.00 in0.0 mm 0.00 in0.0 mm 0.01 in0.3 mm
03:14 AM 34.8°F1.6°C 32.2°F0.1°C 90% 6.0 mph SW9.7 kmh SW 6.0 mph9.7 kmh 29.87 in1011.5 mb 0.00 in0.0 mm 0.00 in0.0 mm 0.01 in0.3 mm
03:00 AM 34.9°F1.6°C 32.0°F0.0°C 89% 4.0 mph W6.4 kmh W 6.0 mph9.7 kmh 29.87 in1011.5 mb 0.00 in0.0 mm 0.00 in0.0 mm 0.01 in0.3 mm
02:44 AM 35.1°F1.7°C 32.2°F0.1°C 89% 3.0 mph SW4.8 kmh SW 7.0 mph11.3 kmh 29.88 in1011.9 mb 0.00 in0.0 mm 0.00 in0.0 mm 0.01 in0.3 mm
02:30 AM 35.6°F2.0°C 32.7°F0.4°C 89% 3.0 mph WSW4.8 kmh WSW 7.0 mph11.3 kmh 29.87 in1011.5 mb 0.00 in0.0 mm 0.00 in0.0 mm 0.01 in0.3 mm
02:14 AM 36.1°F2.3°C 33.2°F0.7°C 89% Calm Calm 5.0 mph8.0 kmh 29.88 in1011.9 mb 0.00 in0.0 mm 0.00 in0.0 mm 0.01 in0.3 mm
01:59 AM 36.3°F2.4°C 33.7°F0.9°C 90% 2.0 mph NNW3.2 kmh NNW 7.0 mph11.3 kmh 29.87 in1011.5 mb 0.00 in0.0 mm 0.00 in0.0 mm 0.01 in0.3 mm
01:44 AM 36.4°F2.4°C 34.0°F1.1°C 91% 4.0 mph WSW6.4 kmh WSW 7.0 mph11.3 kmh 29.88 in1011.9 mb 0.00 in0.0 mm 0.00 in0.0 mm 0.01 in0.3 mm
01:29 AM 36.6°F2.6°C 34.2°F1.2°C 91% 1.0 mph SW1.6 kmh SW 2.0 mph3.2 kmh 29.87 in1011.5 mb 0.00 in0.0 mm 0.00 in0.0 mm 0.01 in0.3 mm
01:14 AM 36.7°F2.6°C 34.1°F1.2°C 90% 1.0 mph WSW1.6 kmh WSW 6.0 mph9.7 kmh 29.87 in1011.5 mb 0.00 in0.0 mm 0.00 in0.0 mm 0.01 in0.3 mm
01:00 AM 36.7°F2.6°C 34.3°F1.3°C 91% 1.0 mph WSW1.6 kmh WSW 10.0 mph16.1 kmh 29.87 in1011.5 mb 0.00 in0.0 mm 0.00 in0.0 mm 0.01 in0.3 mm
12:45 AM 36.7°F2.6°C 34.9°F1.6°C 93% 1.0 mph WSW1.6 kmh WSW 8.0 mph12.9 kmh 29.87 in1011.5 mb 0.00 in0.0 mm 0.00 in0.0 mm 0.01 in0.3 mm
12:29 AM 36.9°F2.7°C 35.3°F1.8°C 94% 5.0 mph WSW8.0 kmh WSW 11.0 mph17.7 kmh 29.87 in1011.5 mb 0.01 in0.3 mm 0.00 in0.0 mm 0.01 in0.3 mm
12:15 AM 37.2°F2.9°C 35.6°F2.0°C 94% 4.0 mph SSW6.4 kmh SSW 6.0 mph9.7 kmh 29.87 in1011.5 mb 0.01 in0.3 mm 0.00 in0.0 mm 0.01 in0.3 mm
12:00 AM 37.4°F3.0°C 35.8°F2.1°C 94% 6.0 mph WSW9.7 kmh WSW 7.0 mph11.3 kmh 29.87 in1011.5 mb 0.01 in0.3 mm 0.00 in0.0 mm 0.01 in0.3 mm